Wayside, MS

3:24 AM CDT on July 25, 2014 (GMT -0500)
Mid Delta Regional (KGLH) Elev 131 ft | 33.48 °N, 90.99 °W | Change Station

Current weather conditions updated 31 minutes ago

Clear
Clear
65 °F
Feels Like 65 °F
N
0
Wind Variable Wind from North

Today is forecast to be nearly the same temperature as yesterday.

Today
High -- | Low -- °F
--% Chance of Precip.
Yesterday
High -- | Low -- °F
Precip. -- in
6:12 AM 8:08 PM
Waning Crescent, 2% visible
Pressure 30.00 in
Visibility 10.0 miles
Clouds Clear
Dew Point 63 °F
Humidity 93%
Rainfall 0.00 in
Snow Depth Not available.
UV 0 out of 12
Pollen 3.40 out of 12
Air Quality Not available.
Flu Activity Not available.
METAR KGLH 250753Z AUTO 00000KT 10SM CLR 18/17 A3000 RMK AO2 SLPNO T01830172

More Conditions Fewer Conditions

Pressure 30.00 in
Visibility 10.0 miles
Clouds Clear
Dew Point 63 °F
Humidity 93%
Rainfall 0.00 in
Snow Depth Not available.
UV 0 out of 12
Pollen 3.40 out of 12
Air Quality Not available.
Flu Activity Not available.
METAR KGLH 250753Z AUTO 00000KT 10SM CLR 18/17 A3000 RMK AO2 SLPNO T01830172

More Conditions Fewer Conditions

10-Day Weather Forecast

Almanac

Astronomy

Jul. 25, 2014 Rise Set
Actual Time 6:12 AM CDT 8:08 PM CDT
Civil Twilight 5:44 AM CDT 8:36 PM CDT
Nautical Twilight 5:11 AM CDT 9:09 PM CDT
Astronomical Twilight 4:35 AM CDT 9:45 PM CDT
Moon 5:09 AM CDT 7:08 PM CDT
Length of Visible Light 14h 51m
Length of Day
13h 56m
Tomorrow will be 1m 22s shorter.
Waning Crescent, 2% of the Moon is Illuminated
Today
Waning Crescent
Jul 26
New
Aug 3
First Quarter
Aug 10
Full
Aug 17
Last Quarter

Today's Extremes

State Highs State Lows

Community

WunderPhotos

Upload Photos

1,737,273 photos uploaded!

Nearby

Snow Depth

Station Depth Elevation
No new snow has been reported.

Earthquake Activity

City Distance Mag. Time & Date
No recent earthquake activity has been reported nearby.
Minimum magnitude displayed is 2.5.

Coastal Water Temperatures

Place Temperature
No Stations Reporting

Nearby Weather Stations

Station Location Temp. Heat Index Dew Point Humidity Wind Precip. Elev Updated Type
MesoWest NORTH ISSAQUENA , Glen Allan, MS 72 °F 70 °F 68 °F 87% ENE  at  2 mph 0.00 in / hr 111 ft 12:00 AM CDT MADIS
MesoWest BEASLEY LAKE , Inverness, MS 69 °F - 67 °F 94% NE  at  2 mph 0.00 in / hr 115 ft 12:00 AM CDT MADIS

Show More Stations Show Fewer Stations